createdAt,value
2022-10-29T00:00:20.564Z,24.70
2022-10-29T00:02:22.298Z,21.67
2022-10-29T00:04:24.085Z,23.65
2022-10-29T00:06:25.932Z,24.42
2022-10-29T00:08:29.697Z,25.73
2022-10-29T00:10:31.577Z,27.95
2022-10-29T00:12:33.489Z,29.23
2022-10-29T00:14:35.348Z,35.33
2022-10-29T00:16:39.699Z,34.00
2022-10-29T00:18:42.061Z,30.30
2022-10-29T00:20:43.811Z,33.40
2022-10-29T00:22:45.666Z,28.48
2022-10-29T00:24:47.479Z,36.50
2022-10-29T00:26:49.160Z,33.95
2022-10-29T00:28:55.701Z,31.42
2022-10-29T00:30:57.568Z,33.42
2022-10-29T00:32:59.288Z,30.77
2022-10-29T00:35:01.192Z,35.45
2022-10-29T00:37:03.944Z,28.98
2022-10-29T00:39:05.623Z,35.63
2022-10-29T00:41:10.865Z,36.70
2022-10-29T00:43:17.987Z,35.78
2022-10-29T00:45:21.017Z,33.58
2022-10-29T00:47:34.340Z,38.55
2022-10-29T00:49:38.830Z,48.90
2022-10-29T00:51:40.680Z,45.85
2022-10-29T00:53:47.869Z,43.80
2022-10-29T00:55:50.222Z,42.03
2022-10-29T00:57:56.091Z,27.95
2022-10-29T00:59:58.226Z,30.38
2022-10-29T01:02:00.299Z,35.78
2022-10-29T01:04:03.556Z,26.27
2022-10-29T01:06:05.829Z,34.22
2022-10-29T01:08:07.639Z,30.80
2022-10-29T01:10:11.302Z,28.90
2022-10-29T01:14:49.847Z,32.53
2022-10-29T01:17:09.765Z,32.30
2022-10-29T01:19:20.779Z,31.77
2022-10-29T01:21:38.061Z,30.05
2022-10-29T01:23:48.543Z,35.75
2022-10-29T01:26:32.223Z,26.63
2022-10-29T01:28:59.973Z,32.67
2022-10-29T01:31:09.659Z,26.67
2022-10-29T01:33:20.649Z,29.08
2022-10-29T01:35:36.614Z,27.55
2022-10-29T01:37:53.573Z,26.70
2022-10-29T01:39:58.356Z,29.15
2022-10-29T01:42:13.349Z,30.65
2022-10-29T01:44:35.831Z,26.77
2022-10-29T01:46:43.435Z,25.35
2022-10-29T01:48:48.922Z,22.73
2022-10-29T01:50:55.378Z,26.35
2022-10-29T01:52:58.092Z,27.33
2022-10-29T01:55:00.170Z,28.08
2022-10-29T01:57:01.897Z,24.08
2022-10-29T01:59:14.336Z,27.10
2022-10-29T02:01:51.229Z,31.48
2022-10-29T02:04:11.571Z,24.00
2022-10-29T02:06:34.068Z,33.10
2022-10-29T02:08:57.041Z,29.17
2022-10-29T02:11:28.146Z,24.88
2022-10-29T02:13:41.617Z,24.35
2022-10-29T02:15:47.688Z,27.30
2022-10-29T02:17:49.589Z,21.92
2022-10-29T02:19:51.309Z,23.25
2022-10-29T02:21:53.194Z,26.00
2022-10-29T02:23:55.086Z,23.10
2022-10-29T02:25:56.814Z,24.17
2022-10-29T02:27:58.861Z,21.85
2022-10-29T02:30:01.021Z,31.90
2022-10-29T02:32:02.698Z,31.88
2022-10-29T02:34:04.470Z,35.83
2022-10-29T02:36:06.726Z,35.90
2022-10-29T02:38:08.418Z,30.88
2022-10-29T02:40:10.718Z,30.63
2022-10-29T02:42:12.502Z,32.58
2022-10-29T02:44:14.215Z,25.58
2022-10-29T02:46:21.155Z,86.25
2022-10-29T02:48:22.920Z,40.22
2022-10-29T02:50:24.694Z,51.58
2022-10-29T02:52:26.733Z,50.35
2022-10-29T02:54:28.611Z,39.97
2022-10-29T02:56:30.329Z,24.40
2022-10-29T02:58:32.529Z,31.67
2022-10-29T03:00:34.288Z,26.10
2022-10-29T03:02:36.086Z,26.58
2022-10-29T03:04:37.848Z,23.83
2022-10-29T03:06:39.746Z,30.42
2022-10-29T03:08:41.771Z,27.02
2022-10-29T03:10:43.656Z,35.40
2022-10-29T03:12:45.435Z,26.73
2022-10-29T03:14:47.155Z,31.08
2022-10-29T03:16:48.968Z,34.35
2022-10-29T03:18:50.921Z,32.13
2022-10-29T03:20:52.635Z,28.98
2022-10-29T03:22:54.501Z,31.98
2022-10-29T03:24:56.280Z,24.70
2022-10-29T03:26:59.996Z,26.27
2022-10-29T03:31:03.398Z,27.88
2022-10-29T03:33:05.118Z,32.72
2022-10-29T03:35:08.538Z,32.10
2022-10-29T03:37:10.363Z,28.65
2022-10-29T03:39:12.048Z,26.45
2022-10-29T03:41:13.912Z,22.67
2022-10-29T03:43:15.731Z,18.90
2022-10-29T03:45:17.452Z,23.40
2022-10-29T03:47:19.366Z,17.55
2022-10-29T03:49:21.082Z,18.98
2022-10-29T03:51:22.778Z,20.77
2022-10-29T03:53:25.679Z,17.23
2022-10-29T03:55:27.674Z,19.02
2022-10-29T03:57:29.373Z,16.98
2022-10-29T03:59:31.213Z,16.05
2022-10-29T04:01:33.059Z,13.23
2022-10-29T04:03:36.788Z,18.73
2022-10-29T04:07:40.554Z,19.83
2022-10-29T04:09:42.249Z,17.20
2022-10-29T04:11:44.173Z,25.00
2022-10-29T04:13:46.070Z,21.30
2022-10-29T04:15:47.799Z,14.82
2022-10-29T04:17:50.546Z,18.65
2022-10-29T04:19:52.365Z,13.35
2022-10-29T04:28:59.397Z,17.85
2022-10-29T04:31:05.782Z,13.93
2022-10-29T04:33:07.957Z,18.67
2022-10-29T04:35:09.628Z,16.17
2022-10-29T04:37:11.600Z,14.38
2022-10-29T04:39:13.345Z,18.27
2022-10-29T04:41:15.031Z,19.45
2022-10-29T04:43:17.046Z,14.55
2022-10-29T04:45:19.591Z,16.55
2022-10-29T04:47:21.329Z,36.67
2022-10-29T04:49:23.280Z,26.88
2022-10-29T04:51:26.639Z,46.88
2022-10-29T04:53:28.741Z,56.55
2022-10-29T04:55:31.126Z,45.38
2022-10-29T04:57:32.954Z,41.03
2022-10-29T04:59:34.721Z,30.58
2022-10-29T05:01:48.114Z,25.40
2022-10-29T05:03:53.082Z,20.83
2022-10-29T05:05:55.981Z,17.40
2022-10-29T05:07:59.440Z,20.42
2022-10-29T05:10:01.293Z,16.58
2022-10-29T05:12:02.991Z,19.70
2022-10-29T05:14:04.889Z,23.20
2022-10-29T05:16:07.176Z,32.15
2022-10-29T05:18:10.524Z,27.08
2022-10-29T05:20:12.467Z,20.88
2022-10-29T05:22:14.216Z,22.75
2022-10-29T05:24:15.905Z,18.00
2022-10-29T05:26:17.715Z,26.73
2022-10-29T05:28:22.371Z,23.35
2022-10-29T05:30:24.055Z,13.32
2022-10-29T05:32:28.669Z,16.55
2022-10-29T05:34:30.545Z,13.38
2022-10-29T05:36:32.248Z,15.68
2022-10-29T05:38:34.049Z,12.80
2022-10-29T05:40:36.285Z,20.58
2022-10-29T05:42:38.409Z,12.20
2022-10-29T05:44:40.314Z,16.45
2022-10-29T05:46:42.045Z,21.52
2022-10-29T05:48:43.752Z,15.43
2022-10-29T05:50:45.776Z,14.65
2022-10-29T05:52:58.559Z,16.20
2022-10-29T05:55:00.660Z,15.17
2022-10-29T05:57:02.638Z,19.63
2022-10-29T05:59:04.793Z,17.15
2022-10-29T06:01:10.826Z,16.08
2022-10-29T06:03:17.880Z,15.02
2022-10-29T06:05:19.823Z,18.13
2022-10-29T06:07:21.569Z,13.80
2022-10-29T06:09:23.333Z,16.33
2022-10-29T06:11:25.115Z,18.45
2022-10-29T06:13:26.837Z,21.08
2022-10-29T06:15:28.823Z,20.42
2022-10-29T06:17:30.697Z,14.23
2022-10-29T06:19:32.427Z,16.00
2022-10-29T06:21:34.201Z,16.33
2022-10-29T06:23:35.985Z,19.88
2022-10-29T06:25:37.695Z,18.42
2022-10-29T06:27:39.477Z,14.30
2022-10-29T06:29:41.385Z,15.05
2022-10-29T06:31:43.064Z,16.48
2022-10-29T06:33:45.126Z,15.63
2022-10-29T06:35:47.721Z,14.82
2022-10-29T06:37:49.451Z,19.17
2022-10-29T06:39:51.233Z,15.77
2022-10-29T06:41:53.184Z,17.02
2022-10-29T06:43:54.870Z,15.75
2022-10-29T06:45:56.623Z,16.15
2022-10-29T06:47:59.143Z,14.68
2022-10-29T06:50:01.147Z,17.50
2022-10-29T06:52:02.874Z,13.40
2022-10-29T06:54:04.749Z,14.73
2022-10-29T06:56:06.652Z,16.88
2022-10-29T06:58:12.075Z,19.80
2022-10-29T07:00:14.182Z,17.92
2022-10-29T07:02:18.807Z,15.73
2022-10-29T07:04:20.523Z,12.82
2022-10-29T07:06:22.280Z,16.55
2022-10-29T07:08:24.649Z,15.20
2022-10-29T07:10:28.424Z,15.40
2022-10-29T07:12:30.112Z,15.57
2022-10-29T07:14:31.909Z,13.73
2022-10-29T07:16:33.650Z,15.48
2022-10-29T07:18:35.757Z,14.60
2022-10-29T07:20:40.181Z,17.15
2022-10-29T07:22:47.299Z,15.43
2022-10-29T07:24:49.068Z,16.30
2022-10-29T07:26:50.843Z,13.13
2022-10-29T07:28:55.645Z,16.23
2022-10-29T07:31:02.378Z,14.75
2022-10-29T07:33:04.221Z,17.90
2022-10-29T07:35:06.335Z,17.27
2022-10-29T07:37:08.328Z,16.85
2022-10-29T07:39:10.048Z,16.20
2022-10-29T07:41:11.843Z,17.77
2022-10-29T07:43:13.963Z,15.60
2022-10-29T07:45:15.707Z,16.55
2022-10-29T07:47:17.443Z,14.07
2022-10-29T07:49:19.292Z,13.95
2022-10-29T07:51:21.035Z,15.05
2022-10-29T07:53:22.740Z,14.43
2022-10-29T07:55:24.775Z,17.10
2022-10-29T07:57:26.538Z,19.65
2022-10-29T07:59:28.240Z,16.52
2022-10-29T08:01:30.149Z,17.83
2022-10-29T08:03:31.911Z,16.65
2022-10-29T08:05:33.714Z,12.52
2022-10-29T08:07:35.579Z,21.60
2022-10-29T08:09:37.309Z,18.70
2022-10-29T08:11:39.280Z,18.77
2022-10-29T08:13:41.532Z,19.30
2022-10-29T08:15:46.730Z,17.38
2022-10-29T08:17:48.630Z,16.92
2022-10-29T08:19:50.811Z,17.48
2022-10-29T08:21:52.574Z,22.05
2022-10-29T08:23:54.267Z,22.67
2022-10-29T08:25:58.239Z,18.75
2022-10-29T08:28:04.778Z,18.23
2022-10-29T08:30:07.720Z,17.35
2022-10-29T08:32:10.902Z,21.50
2022-10-29T08:34:12.614Z,22.45
2022-10-29T08:36:14.383Z,15.20
2022-10-29T08:38:16.202Z,21.38
2022-10-29T08:40:46.164Z,17.98
2022-10-29T08:43:12.911Z,20.42
2022-10-29T08:45:40.577Z,22.02
2022-10-29T08:48:10.113Z,17.33
2022-10-29T08:50:24.396Z,21.98
2022-10-29T08:52:29.094Z,19.02
2022-10-29T08:54:34.422Z,15.77
2022-10-29T08:56:38.931Z,19.30
2022-10-29T08:59:08.659Z,19.60
2022-10-29T09:01:12.190Z,22.65
2022-10-29T09:03:14.281Z,22.10
2022-10-29T09:05:17.658Z,20.42
2022-10-29T09:07:29.919Z,19.60
2022-10-29T09:09:41.971Z,17.10
2022-10-29T09:12:08.480Z,17.20
2022-10-29T09:14:31.563Z,21.02
2022-10-29T09:16:42.773Z,20.73
2022-10-29T09:18:53.753Z,21.35
2022-10-29T09:21:08.268Z,21.10
2022-10-29T09:23:26.850Z,25.75
2022-10-29T09:25:39.321Z,17.95
2022-10-29T09:27:43.758Z,18.67
2022-10-29T09:30:11.853Z,17.50
2022-10-29T09:32:19.713Z,19.30
2022-10-29T09:34:30.854Z,18.48
2022-10-29T09:36:33.275Z,18.70
2022-10-29T09:38:41.310Z,18.85
2022-10-29T09:40:44.019Z,17.55
2022-10-29T09:42:47.994Z,19.73
2022-10-29T09:45:01.935Z,19.83
2022-10-29T09:49:55.880Z,15.65
2022-10-29T09:52:04.111Z,21.00
2022-10-29T09:54:06.146Z,17.23
2022-10-29T09:56:09.102Z,17.10
2022-10-29T09:58:21.159Z,14.93
2022-10-29T10:00:29.225Z,18.67
2022-10-29T10:03:02.958Z,17.65
2022-10-29T10:05:19.819Z,14.33
2022-10-29T10:07:21.515Z,20.45
2022-10-29T10:09:23.229Z,15.25
2022-10-29T10:11:27.767Z,21.33
2022-10-29T10:13:37.816Z,19.40
2022-10-29T10:15:39.537Z,26.45
2022-10-29T10:18:18.867Z,19.65
2022-10-29T10:20:28.579Z,18.80
2022-10-29T10:22:30.264Z,25.73
2022-10-29T10:24:36.965Z,18.15
2022-10-29T10:26:42.507Z,18.02
2022-10-29T10:28:44.291Z,24.85
2022-10-29T10:31:13.746Z,19.73
2022-10-29T10:33:26.331Z,17.88
2022-10-29T10:35:30.967Z,19.73
2022-10-29T10:37:34.086Z,23.20
2022-10-29T10:39:44.776Z,19.83
2022-10-29T10:41:49.472Z,18.25
2022-10-29T10:43:52.386Z,21.52
2022-10-29T10:45:59.771Z,23.00
2022-10-29T10:48:02.208Z,20.40
2022-10-29T10:50:31.305Z,15.18
2022-10-29T10:52:33.128Z,22.48
2022-10-29T10:54:37.387Z,15.23
2022-10-29T10:56:59.982Z,16.63
2022-10-29T10:59:17.431Z,14.98
2022-10-29T11:01:26.981Z,17.27
2022-10-29T11:03:37.207Z,17.77
2022-10-29T11:05:46.568Z,18.35
2022-10-29T11:08:04.701Z,15.93
2022-10-29T11:10:12.255Z,18.15
2022-10-29T11:12:52.758Z,16.50
2022-10-29T11:15:04.363Z,14.13
2022-10-29T11:17:19.119Z,14.85
2022-10-29T11:19:27.966Z,14.70
2022-10-29T11:21:46.926Z,20.05
2022-10-29T11:24:23.827Z,20.10
2022-10-29T11:26:50.286Z,18.42
2022-10-29T11:29:00.796Z,17.15
2022-10-29T11:31:27.884Z,14.77
2022-10-29T11:33:47.118Z,16.58
2022-10-29T11:36:14.986Z,14.20
2022-10-29T11:38:25.104Z,13.85
2022-10-29T11:40:54.452Z,17.80
2022-10-29T11:42:57.458Z,20.27
2022-10-29T11:45:00.449Z,15.98
2022-10-29T11:47:02.137Z,16.77
2022-10-29T11:49:29.502Z,13.48
2022-10-29T11:51:59.342Z,15.38
2022-10-29T11:54:19.998Z,16.08
2022-10-29T11:56:50.414Z,19.83
2022-10-29T11:59:03.754Z,13.55
2022-10-29T12:01:37.495Z,15.05
2022-10-29T12:03:54.329Z,15.68
2022-10-29T12:06:03.140Z,16.60
2022-10-29T12:08:26.794Z,14.80
2022-10-29T12:10:40.249Z,10.85
2022-10-29T12:13:12.658Z,13.70
2022-10-29T12:15:26.982Z,11.52
2022-10-29T12:17:38.615Z,14.95
2022-10-29T12:19:43.552Z,15.10
2022-10-29T12:22:21.258Z,12.15
2022-10-29T12:25:00.121Z,16.70
2022-10-29T12:27:09.842Z,23.25
2022-10-29T12:29:53.856Z,19.13
2022-10-29T12:32:01.531Z,20.13
2022-10-29T12:34:26.869Z,15.48
2022-10-29T12:36:37.089Z,17.88
2022-10-29T12:38:38.872Z,14.82
2022-10-29T12:40:44.473Z,17.38
2022-10-29T12:42:48.320Z,16.00
2022-10-29T12:45:18.048Z,12.48
2022-10-29T12:47:37.843Z,19.98
2022-10-29T12:50:11.830Z,13.07
2022-10-29T12:52:25.020Z,15.93
2022-10-29T12:54:29.326Z,104.65
2022-10-29T12:56:32.189Z,16.30
2022-10-29T12:58:42.914Z,13.85
2022-10-29T13:00:46.130Z,20.10
2022-10-29T13:02:47.991Z,15.35
2022-10-29T13:05:08.066Z,13.13
2022-10-29T13:07:18.688Z,13.82
2022-10-29T13:09:25.273Z,19.80
2022-10-29T13:11:47.968Z,14.93
2022-10-29T13:13:54.621Z,13.30
2022-10-29T13:16:03.602Z,17.27
2022-10-29T13:18:18.194Z,13.93
2022-10-29T13:20:27.489Z,12.90
2022-10-29T13:23:09.698Z,11.57
2022-10-29T13:25:34.301Z,13.73
2022-10-29T13:27:36.263Z,13.40
2022-10-29T13:29:51.782Z,12.93
2022-10-29T13:31:53.567Z,11.70
2022-10-29T13:33:55.310Z,17.40
2022-10-29T13:36:16.286Z,15.15
2022-10-29T13:38:18.141Z,12.55
2022-10-29T13:40:22.589Z,13.63
2022-10-29T13:42:24.537Z,21.98
2022-10-29T13:44:28.175Z,14.50
2022-10-29T13:48:53.508Z,22.20
2022-10-29T13:50:58.484Z,92.38
2022-10-29T13:53:02.094Z,24.13
2022-10-29T13:55:09.374Z,16.60
2022-10-29T13:57:19.784Z,11.65
2022-10-29T13:59:30.760Z,10.77
2022-10-29T14:01:33.878Z,33.60
2022-10-29T14:03:56.570Z,18.90
2022-10-29T14:06:31.420Z,13.68
2022-10-29T14:08:50.893Z,14.20
2022-10-29T14:10:57.369Z,10.52
2022-10-29T14:13:11.343Z,9.02
2022-10-29T14:17:18.973Z,12.25
2022-10-29T14:19:21.655Z,15.40
2022-10-29T14:21:34.785Z,13.02
2022-10-29T14:23:36.474Z,13.60
2022-10-29T14:25:38.178Z,12.13
2022-10-29T14:27:40.101Z,12.82
2022-10-29T14:29:42.013Z,12.88
2022-10-29T14:31:43.737Z,12.27
2022-10-29T14:33:52.731Z,9.95
2022-10-29T14:36:06.023Z,17.67
2022-10-29T14:38:11.448Z,15.18
2022-10-29T14:40:23.679Z,11.80
2022-10-29T14:42:35.205Z,30.40
2022-10-29T14:44:37.009Z,86.18
2022-10-29T14:46:39.085Z,90.72
2022-10-29T14:48:56.607Z,21.15
2022-10-29T14:50:58.326Z,74.50
2022-10-29T14:53:06.571Z,11.82
2022-10-29T14:55:31.794Z,66.78
2022-10-29T14:57:40.391Z,178.10
2022-10-29T14:59:57.207Z,34.47
2022-10-29T15:02:37.145Z,30.40
2022-10-29T15:04:28.675Z,16.92
2022-10-29T15:06:30.652Z,35.22
2022-10-29T15:08:39.052Z,146.57
2022-10-29T15:10:45.262Z,32.90
2022-10-29T15:12:47.384Z,23.90
2022-10-29T15:14:53.416Z,24.40
2022-10-29T15:16:55.189Z,30.70
2022-10-29T15:18:59.018Z,30.70
2022-10-29T15:21:01.417Z,23.52
2022-10-29T15:23:04.000Z,22.40
2022-10-29T15:25:13.191Z,18.00
2022-10-29T15:27:15.730Z,19.23
2022-10-29T15:29:25.172Z,13.00
2022-10-29T15:31:31.394Z,28.10
2022-10-29T15:33:37.061Z,27.67
2022-10-29T15:35:48.517Z,32.95
2022-10-29T15:37:50.391Z,35.72
2022-10-29T15:40:05.732Z,15.73
2022-10-29T15:42:21.252Z,10.15
2022-10-29T15:44:50.369Z,11.90
2022-10-29T15:46:52.179Z,15.32
2022-10-29T15:48:54.201Z,17.05
2022-10-29T15:50:56.075Z,11.63
2022-10-29T15:53:00.392Z,13.98
2022-10-29T15:55:05.033Z,40.97
2022-10-29T15:57:09.818Z,20.38
2022-10-29T15:59:13.665Z,37.88
2022-10-29T16:01:16.549Z,24.48
2022-10-29T16:03:21.617Z,22.30
2022-10-29T16:05:23.331Z,85.35
2022-10-29T16:07:25.060Z,21.75
2022-10-29T16:09:27.389Z,22.45
2022-10-29T16:11:29.349Z,23.45
2022-10-29T16:13:32.887Z,57.05
2022-10-29T16:15:37.464Z,24.83
2022-10-29T16:17:41.825Z,15.18
2022-10-29T16:19:44.113Z,46.70
2022-10-29T16:21:45.923Z,35.25
2022-10-29T16:23:48.536Z,43.25
2022-10-29T16:25:50.442Z,37.63
2022-10-29T16:27:52.685Z,44.53
2022-10-29T16:29:54.527Z,36.30
2022-10-29T16:31:56.274Z,48.90
2022-10-29T16:34:10.842Z,49.78
2022-10-29T16:36:12.894Z,56.08
2022-10-29T16:38:17.725Z,76.45
2022-10-29T16:40:21.797Z,63.90
2022-10-29T16:42:31.062Z,44.75
2022-10-29T16:44:33.430Z,82.47
2022-10-29T16:46:35.292Z,89.72
2022-10-29T16:48:37.721Z,72.07
2022-10-29T16:50:41.627Z,114.47
2022-10-29T16:52:47.382Z,97.55
2022-10-29T16:54:49.595Z,114.13
2022-10-29T16:56:51.656Z,68.43
2022-10-29T16:59:01.709Z,114.30
2022-10-29T17:01:06.929Z,78.10
2022-10-29T17:03:12.475Z,59.15
2022-10-29T17:05:15.670Z,22.73
2022-10-29T17:07:19.645Z,84.28
2022-10-29T17:09:25.350Z,64.15
2022-10-29T17:11:27.821Z,115.95
2022-10-29T17:13:34.145Z,37.95
2022-10-29T17:15:39.784Z,33.63
2022-10-29T17:17:43.978Z,31.35
2022-10-29T17:19:48.420Z,193.02
2022-10-29T17:21:54.198Z,281.95
2022-10-29T17:23:56.503Z,15.23
2022-10-29T17:25:59.553Z,147.50
2022-10-29T17:28:04.058Z,285.42
2022-10-29T17:30:07.552Z,113.20
2022-10-29T17:32:10.404Z,100.88
2022-10-29T17:34:12.367Z,173.02
2022-10-29T17:36:16.202Z,328.05
2022-10-29T17:38:18.527Z,424.48
2022-10-29T17:40:23.507Z,119.22
2022-10-29T17:42:25.698Z,81.93
2022-10-29T17:44:31.010Z,25.85
2022-10-29T17:46:33.131Z,29.17
2022-10-29T17:48:36.117Z,20.42
2022-10-29T17:50:38.504Z,23.20
2022-10-29T17:52:43.123Z,39.83
2022-10-29T17:54:45.271Z,31.67
2022-10-29T17:56:47.661Z,27.60
2022-10-29T17:58:49.756Z,28.02
2022-10-29T18:00:51.953Z,33.08
2022-10-29T18:02:53.882Z,31.52
2022-10-29T18:04:56.170Z,30.02
2022-10-29T18:07:01.071Z,28.05
2022-10-29T18:09:04.090Z,28.40
2022-10-29T18:11:12.056Z,32.80
2022-10-29T18:13:14.119Z,45.00
2022-10-29T18:15:16.023Z,51.45
2022-10-29T18:17:17.956Z,45.17
2022-10-29T18:19:20.363Z,42.88
2022-10-29T18:21:23.841Z,47.90
2022-10-29T18:23:26.924Z,37.53
2022-10-29T18:25:29.302Z,43.97
2022-10-29T18:27:34.472Z,41.25
2022-10-29T18:29:36.359Z,48.20
2022-10-29T18:31:38.679Z,35.58
2022-10-29T18:33:40.932Z,35.60
2022-10-29T18:35:42.979Z,29.58
2022-10-29T18:37:55.607Z,32.72
2022-10-29T18:39:58.794Z,26.52
2022-10-29T18:42:00.991Z,25.30
2022-10-29T18:44:06.611Z,33.13
2022-10-29T18:46:09.898Z,38.08
2022-10-29T18:48:14.954Z,105.82
2022-10-29T18:50:17.458Z,129.65
2022-10-29T18:52:19.518Z,50.90
2022-10-29T18:54:23.779Z,53.95
2022-10-29T18:56:29.512Z,78.60
2022-10-29T18:58:36.043Z,71.55
2022-10-29T19:00:41.495Z,67.90
2022-10-29T19:02:45.827Z,50.83
2022-10-29T19:04:49.387Z,54.83
2022-10-29T19:06:51.370Z,41.80
2022-10-29T19:08:56.619Z,38.35
2022-10-29T19:11:03.068Z,38.03
2022-10-29T19:13:06.528Z,37.90
2022-10-29T19:15:11.278Z,32.40
2022-10-29T19:17:15.919Z,34.45
2022-10-29T19:19:21.210Z,34.22
2022-10-29T19:21:26.554Z,30.60
2022-10-29T19:23:28.722Z,28.75
2022-10-29T19:25:35.052Z,27.80
2022-10-29T19:27:39.950Z,32.60
2022-10-29T19:29:41.960Z,30.98
2022-10-29T19:31:45.784Z,31.42
2022-10-29T19:33:51.038Z,26.35
2022-10-29T19:35:53.465Z,23.95
2022-10-29T19:37:55.816Z,28.63
2022-10-29T19:39:58.568Z,22.98
2022-10-29T19:42:00.745Z,29.02
2022-10-29T19:44:11.546Z,27.33
2022-10-29T19:46:22.992Z,30.65
2022-10-29T19:48:25.896Z,29.95
2022-10-29T19:50:27.890Z,28.13
2022-10-29T19:52:32.942Z,27.80
2022-10-29T19:54:40.152Z,29.30
2022-10-29T19:56:42.315Z,34.30
2022-10-29T19:58:55.968Z,27.48
2022-10-29T20:01:04.664Z,46.10
2022-10-29T20:03:06.778Z,35.88
2022-10-29T20:07:33.408Z,40.60
2022-10-29T20:09:36.124Z,34.03
2022-10-29T20:11:38.372Z,34.58
2022-10-29T20:13:48.783Z,31.33
2022-10-29T20:15:51.456Z,33.67
2022-10-29T20:17:53.630Z,32.88
2022-10-29T20:19:58.455Z,33.00
2022-10-29T20:22:03.270Z,33.53
2022-10-29T20:24:07.548Z,49.25
2022-10-29T20:26:09.752Z,41.35
2022-10-29T20:28:17.810Z,39.55
2022-10-29T20:30:30.601Z,46.72
2022-10-29T20:32:35.767Z,46.42
2022-10-29T20:34:44.276Z,43.38
2022-10-29T20:36:46.630Z,54.92
2022-10-29T20:38:54.884Z,43.95
2022-10-29T20:41:04.259Z,34.35
2022-10-29T20:43:08.486Z,35.75
2022-10-29T20:45:32.759Z,42.05
2022-10-29T20:47:46.300Z,43.55
2022-10-29T20:49:50.537Z,40.63
2022-10-29T20:51:52.507Z,42.38
2022-10-29T20:53:55.242Z,36.15
2022-10-29T20:55:57.484Z,34.30
2022-10-29T20:58:01.338Z,34.15
2022-10-29T21:00:15.253Z,31.00
2022-10-29T21:02:17.463Z,32.42
2022-10-29T21:04:20.241Z,32.88
2022-10-29T21:06:27.603Z,30.17
2022-10-29T21:08:30.187Z,38.88
2022-10-29T21:10:32.553Z,33.85
2022-10-29T21:12:34.867Z,33.08
2022-10-29T21:14:37.128Z,38.85
2022-10-29T21:16:43.817Z,41.47
2022-10-29T21:18:48.210Z,37.03
2022-10-29T21:20:55.136Z,36.95
2022-10-29T21:23:02.542Z,44.20
2022-10-29T21:25:04.978Z,42.58
2022-10-29T21:27:07.348Z,50.97
2022-10-29T21:29:09.424Z,37.58
2022-10-29T21:31:18.209Z,39.97
2022-10-29T21:33:22.496Z,56.13
2022-10-29T21:35:24.581Z,59.10
2022-10-29T21:37:26.903Z,44.28
2022-10-29T21:39:28.887Z,47.10
2022-10-29T21:41:36.230Z,43.83
2022-10-29T21:43:38.955Z,47.00
2022-10-29T21:45:46.109Z,43.10
2022-10-29T21:47:54.999Z,46.65
2022-10-29T21:49:57.371Z,48.05
2022-10-29T21:52:04.924Z,43.53
2022-10-29T21:54:11.818Z,40.03
2022-10-29T21:56:16.366Z,38.65
2022-10-29T21:58:18.349Z,40.55
2022-10-29T22:00:24.141Z,42.30
2022-10-29T22:02:26.382Z,35.78
2022-10-29T22:04:28.611Z,40.83
2022-10-29T22:06:33.815Z,39.78
2022-10-29T22:08:36.395Z,42.60
2022-10-29T22:10:38.503Z,36.80
2022-10-29T22:12:42.262Z,37.88
2022-10-29T22:14:44.144Z,40.85
2022-10-29T22:16:48.381Z,39.42
2022-10-29T22:18:53.654Z,33.55
2022-10-29T22:21:19.997Z,36.67
2022-10-29T22:23:22.221Z,36.22
2022-10-29T22:25:24.712Z,37.15
2022-10-29T22:27:26.616Z,39.55
2022-10-29T22:29:28.755Z,32.67
2022-10-29T22:31:38.497Z,34.58
2022-10-29T22:33:41.585Z,31.08
2022-10-29T22:35:43.805Z,35.40
2022-10-29T22:37:46.044Z,45.00
2022-10-29T22:39:56.133Z,42.17
2022-10-29T22:41:58.203Z,42.60
2022-10-29T22:44:00.519Z,41.15
2022-10-29T22:46:03.971Z,47.53
2022-10-29T22:48:06.403Z,43.47
2022-10-29T22:50:09.432Z,45.28
2022-10-29T22:52:11.728Z,46.58
2022-10-29T22:54:13.862Z,39.60
2022-10-29T22:56:20.664Z,40.00
2022-10-29T22:58:22.741Z,46.20
2022-10-29T23:00:24.747Z,41.70
2022-10-29T23:02:27.008Z,35.83
2022-10-29T23:04:29.313Z,38.13
2022-10-29T23:06:31.682Z,52.88
2022-10-29T23:08:35.017Z,41.60
2022-10-29T23:10:39.418Z,44.20
2022-10-29T23:12:41.495Z,58.58
2022-10-29T23:14:43.625Z,60.50
2022-10-29T23:16:45.633Z,48.80
2022-10-29T23:18:56.079Z,45.42
2022-10-29T23:21:05.363Z,42.50
2022-10-29T23:23:10.925Z,40.97
2022-10-29T23:25:13.132Z,47.88
2022-10-29T23:27:15.259Z,49.25
2022-10-29T23:29:17.453Z,45.05
2022-10-29T23:31:27.879Z,41.85
2022-10-29T23:33:31.561Z,35.25
2022-10-29T23:39:43.271Z,33.45
2022-10-29T23:41:48.280Z,37.83
2022-10-29T23:43:50.797Z,37.20
2022-10-29T23:45:56.669Z,42.80
2022-10-29T23:48:00.969Z,34.95
2022-10-29T23:50:03.233Z,30.40
2022-10-29T23:52:05.470Z,31.52
2022-10-29T23:54:07.828Z,30.17
2022-10-29T23:56:09.936Z,27.52
2022-10-29T23:58:13.032Z,33.17
